createdAt,value
2018-05-06T00:00:26.923Z,8.20
2018-05-06T00:02:55.224Z,7.80
2018-05-06T00:05:23.526Z,8.20
2018-05-06T00:07:51.805Z,8.65
2018-05-06T00:10:20.122Z,7.65
2018-05-06T00:12:48.325Z,9.30
2018-05-06T00:15:16.490Z,8.48
2018-05-06T00:17:44.792Z,8.60
2018-05-06T00:20:13.230Z,8.27
2018-05-06T00:22:41.626Z,8.68
2018-05-06T00:25:10.023Z,8.90
2018-05-06T00:27:38.612Z,9.80
2018-05-06T00:30:06.683Z,8.68
2018-05-06T00:32:34.886Z,8.90
2018-05-06T00:35:03.296Z,8.63
2018-05-06T00:37:31.597Z,9.10
2018-05-06T00:39:59.883Z,9.57
2018-05-06T00:42:28.182Z,9.73
2018-05-06T00:44:56.489Z,9.82
2018-05-06T00:47:24.868Z,8.95
2018-05-06T00:49:53.164Z,8.80
2018-05-06T00:52:21.663Z,8.25
2018-05-06T00:54:50.198Z,8.15
2018-05-06T00:57:18.569Z,8.55
2018-05-06T00:59:46.873Z,9.35
2018-05-06T01:02:15.166Z,7.50
2018-05-06T01:04:43.277Z,8.18
2018-05-06T01:07:11.553Z,9.30
2018-05-06T01:09:39.589Z,7.70
2018-05-06T01:12:07.856Z,8.00
2018-05-06T01:14:36.038Z,8.07
2018-05-06T01:17:04.225Z,8.80
2018-05-06T01:19:32.428Z,7.85
2018-05-06T01:22:01.046Z,8.40
2018-05-06T01:24:29.334Z,7.72
2018-05-06T01:26:57.835Z,7.97
2018-05-06T01:29:26.133Z,9.02
2018-05-06T01:31:54.622Z,8.18
2018-05-06T01:34:23.035Z,8.00
2018-05-06T01:36:51.325Z,8.07
2018-05-06T01:39:19.837Z,7.65
2018-05-06T01:41:48.216Z,8.30
2018-05-06T01:44:16.523Z,7.78
2018-05-06T01:46:44.705Z,7.62
2018-05-06T01:49:12.814Z,7.72
2018-05-06T01:51:41.012Z,7.15
2018-05-06T01:54:09.805Z,7.43
2018-05-06T01:56:39.035Z,7.60
2018-05-06T01:59:07.315Z,6.80
2018-05-06T02:01:35.520Z,8.25
2018-05-06T02:04:03.713Z,7.43
2018-05-06T02:06:32.012Z,7.32
2018-05-06T02:09:00.418Z,7.25
2018-05-06T02:11:28.796Z,6.80
2018-05-06T02:13:57.208Z,7.05
2018-05-06T02:16:25.411Z,6.30
2018-05-06T02:18:54.009Z,7.22
2018-05-06T02:21:22.403Z,7.25
2018-05-06T02:23:50.806Z,6.90
2018-05-06T02:26:18.923Z,7.30
2018-05-06T02:28:47.299Z,7.82
2018-05-06T02:31:15.492Z,7.40
2018-05-06T02:33:43.868Z,8.50
2018-05-06T02:36:12.075Z,6.95
2018-05-06T02:38:40.473Z,5.95
2018-05-06T02:41:08.765Z,7.05
2018-05-06T02:43:37.057Z,6.68
2018-05-06T02:46:05.270Z,6.62
2018-05-06T02:48:33.574Z,6.05
2018-05-06T02:51:01.964Z,6.00
2018-05-06T02:53:30.251Z,6.75
2018-05-06T02:55:58.562Z,6.45
2018-05-06T02:58:26.947Z,7.07
2018-05-06T03:00:55.360Z,6.00
2018-05-06T03:03:23.748Z,6.70
2018-05-06T03:05:51.917Z,6.80
2018-05-06T03:08:20.235Z,7.35
2018-05-06T03:10:48.373Z,7.43
2018-05-06T03:13:16.725Z,7.70
2018-05-06T03:15:44.822Z,7.35
2018-05-06T03:18:14.165Z,6.85
2018-05-06T03:20:42.429Z,7.10
2018-05-06T03:23:10.699Z,6.90
2018-05-06T03:25:38.932Z,6.85
2018-05-06T03:28:07.226Z,7.25
2018-05-06T03:30:35.326Z,7.37
2018-05-06T03:33:03.525Z,7.10
2018-05-06T03:35:31.910Z,6.37
2018-05-06T03:38:00.205Z,6.82
2018-05-06T03:40:28.610Z,6.50
2018-05-06T03:42:56.799Z,6.95
2018-05-06T03:45:25.714Z,6.55
2018-05-06T03:47:54.017Z,7.00
2018-05-06T03:50:22.424Z,6.37
2018-05-06T03:52:50.833Z,6.75
2018-05-06T03:55:19.223Z,5.93
2018-05-06T03:57:47.614Z,6.47
2018-05-06T04:00:16.005Z,8.48
2018-05-06T04:02:44.228Z,8.15
2018-05-06T04:05:12.585Z,8.52
2018-05-06T04:07:40.796Z,8.27
2018-05-06T04:10:09.204Z,8.30
2018-05-06T04:12:37.692Z,6.78
2018-05-06T04:15:06.106Z,8.63
2018-05-06T04:17:34.388Z,8.50
2018-05-06T04:20:02.796Z,7.90
2018-05-06T04:22:30.876Z,8.05
2018-05-06T04:24:59.275Z,7.78
2018-05-06T04:27:27.666Z,6.85
2018-05-06T04:29:55.965Z,8.52
2018-05-06T04:32:24.266Z,7.80
2018-05-06T04:34:52.470Z,7.00
2018-05-06T04:37:20.650Z,7.32
2018-05-06T04:39:49.277Z,7.97
2018-05-06T04:42:17.549Z,7.00
2018-05-06T04:44:45.751Z,7.30
2018-05-06T04:47:13.849Z,7.97
2018-05-06T04:49:42.547Z,7.37
2018-05-06T04:52:10.646Z,7.93
2018-05-06T04:54:38.833Z,7.45
2018-05-06T04:57:07.029Z,6.55
2018-05-06T04:59:35.234Z,8.23
2018-05-06T05:02:03.535Z,8.45
2018-05-06T05:04:31.826Z,8.15
2018-05-06T05:07:00.120Z,7.22
2018-05-06T05:09:28.429Z,9.77
2018-05-06T05:11:56.807Z,9.82
2018-05-06T05:14:25.104Z,8.40
2018-05-06T05:16:53.309Z,9.43
2018-05-06T05:19:21.492Z,9.73
2018-05-06T05:21:49.587Z,8.77
2018-05-06T05:24:17.769Z,10.38
2018-05-06T05:26:45.880Z,9.98
2018-05-06T05:29:14.082Z,10.20
2018-05-06T05:31:42.377Z,10.80
2018-05-06T05:34:10.657Z,11.18
2018-05-06T05:36:38.846Z,11.40
2018-05-06T05:39:07.052Z,10.73
2018-05-06T05:41:35.516Z,10.43
2018-05-06T05:44:03.697Z,11.90
2018-05-06T05:46:32.037Z,11.57
2018-05-06T05:49:00.346Z,10.45
2018-05-06T05:51:28.733Z,9.85
2018-05-06T05:53:57.030Z,10.93
2018-05-06T05:56:25.138Z,9.90
2018-05-06T05:58:53.317Z,9.70
2018-05-06T06:01:21.687Z,10.60
2018-05-06T06:03:49.924Z,10.57
2018-05-06T06:06:18.109Z,9.85
2018-05-06T06:08:47.018Z,10.60
2018-05-06T06:11:15.109Z,10.35
2018-05-06T06:13:43.218Z,10.70
2018-05-06T06:16:11.628Z,10.25
2018-05-06T06:18:40.017Z,11.18
2018-05-06T06:21:08.397Z,12.10
2018-05-06T06:23:36.596Z,11.57
2018-05-06T06:26:04.899Z,13.60
2018-05-06T06:28:33.194Z,12.65
2018-05-06T06:31:01.613Z,12.32
2018-05-06T06:33:30.291Z,12.20
2018-05-06T06:35:58.800Z,12.00
2018-05-06T06:38:27.033Z,11.05
2018-05-06T06:40:55.288Z,11.80
2018-05-06T06:43:23.379Z,12.57
2018-05-06T06:45:51.581Z,12.40
2018-05-06T06:48:19.781Z,12.55
2018-05-06T06:50:48.176Z,13.65
2018-05-06T06:53:16.361Z,12.15
2018-05-06T06:55:44.669Z,12.50
2018-05-06T06:58:12.961Z,12.50
2018-05-06T07:00:41.363Z,12.68
2018-05-06T07:03:09.498Z,13.07
2018-05-06T07:05:37.846Z,11.90
2018-05-06T07:08:06.377Z,11.18
2018-05-06T07:10:34.747Z,10.77
2018-05-06T07:13:03.132Z,11.38
2018-05-06T07:15:32.086Z,11.43
2018-05-06T07:18:00.777Z,11.30
2018-05-06T07:20:29.379Z,12.70
2018-05-06T07:22:57.863Z,12.15
2018-05-06T07:25:26.057Z,11.50
2018-05-06T07:27:54.262Z,12.43
2018-05-06T07:30:22.773Z,11.60
2018-05-06T07:32:51.052Z,12.18
2018-05-06T07:35:19.343Z,11.35
2018-05-06T07:37:47.901Z,11.82
2018-05-06T07:40:16.056Z,11.12
2018-05-06T07:42:44.331Z,11.75
2018-05-06T07:45:12.658Z,9.73
2018-05-06T07:47:41.097Z,9.23
2018-05-06T07:50:09.430Z,9.60
2018-05-06T07:52:38.148Z,9.37
2018-05-06T07:55:06.478Z,8.80
2018-05-06T07:57:34.846Z,9.07
2018-05-06T08:00:03.854Z,8.80
2018-05-06T08:02:32.399Z,8.67
2018-05-06T08:05:00.743Z,8.70
2018-05-06T08:07:29.251Z,8.17
2018-05-06T08:09:57.684Z,8.17
2018-05-06T08:12:26.047Z,7.77
2018-05-06T08:14:54.184Z,7.60
2018-05-06T08:17:22.449Z,6.83
2018-05-06T08:19:50.651Z,7.23
2018-05-06T08:22:18.913Z,7.50
2018-05-06T08:24:47.250Z,7.47
2018-05-06T08:27:15.518Z,7.20
2018-05-06T08:29:44.527Z,6.73
2018-05-06T08:32:12.627Z,7.00
2018-05-06T08:34:41.040Z,6.17
2018-05-06T08:37:09.533Z,7.17
2018-05-06T08:39:38.024Z,8.60
2018-05-06T08:42:06.307Z,8.70
2018-05-06T08:44:34.705Z,8.93
2018-05-06T08:47:03.103Z,8.53
2018-05-06T08:49:31.203Z,9.23
2018-05-06T08:51:59.507Z,9.53
2018-05-06T08:54:27.571Z,9.40
2018-05-06T08:56:55.797Z,8.87
2018-05-06T08:59:23.927Z,8.93
2018-05-06T09:01:52.298Z,9.40
2018-05-06T09:04:20.477Z,7.77
2018-05-06T09:06:49.960Z,8.00
2018-05-06T09:09:18.099Z,8.87
2018-05-06T09:11:46.304Z,7.63
2018-05-06T09:14:14.706Z,8.67
2018-05-06T09:16:42.996Z,7.73
2018-05-06T09:19:11.297Z,8.37
2018-05-06T09:21:39.672Z,9.30
2018-05-06T09:24:08.660Z,8.30
2018-05-06T09:26:36.999Z,8.30
2018-05-06T09:29:05.427Z,7.80
2018-05-06T09:31:33.768Z,7.83
2018-05-06T09:34:01.885Z,8.60
2018-05-06T09:36:30.177Z,8.10
2018-05-06T09:38:58.384Z,7.63
2018-05-06T09:41:26.684Z,8.43
2018-05-06T09:43:55.266Z,8.03
2018-05-06T09:46:23.677Z,8.07
2018-05-06T09:48:51.770Z,7.13
2018-05-06T09:51:20.055Z,7.43
2018-05-06T09:53:49.518Z,8.70
2018-05-06T09:56:17.997Z,7.83
2018-05-06T09:58:46.478Z,7.93
2018-05-06T10:01:14.678Z,8.30
2018-05-06T10:03:42.896Z,7.43
2018-05-06T10:06:11.170Z,7.47
2018-05-06T10:08:39.350Z,8.40
2018-05-06T10:11:07.547Z,8.87
2018-05-06T10:13:35.866Z,7.80
2018-05-06T10:16:04.153Z,8.27
2018-05-06T10:18:32.452Z,7.80
2018-05-06T10:21:00.651Z,7.60
2018-05-06T10:23:28.930Z,8.10
2018-05-06T10:25:57.137Z,8.40
2018-05-06T10:28:25.314Z,8.77
2018-05-06T10:30:53.626Z,9.00
2018-05-06T10:33:22.026Z,7.93
2018-05-06T10:35:50.322Z,7.43
2018-05-06T10:38:18.626Z,9.17
2018-05-06T10:40:46.952Z,8.47
2018-05-06T10:43:15.332Z,7.77
2018-05-06T10:45:43.923Z,6.60
2018-05-06T10:48:12.113Z,6.83
2018-05-06T10:50:40.432Z,6.63
2018-05-06T10:53:08.915Z,7.47
2018-05-06T10:55:37.108Z,6.67
2018-05-06T10:58:05.513Z,6.83
2018-05-06T11:00:33.996Z,7.80
2018-05-06T11:03:03.191Z,7.43
2018-05-06T11:05:31.412Z,7.73
2018-05-06T11:07:59.607Z,8.30
2018-05-06T11:10:27.849Z,7.30
2018-05-06T11:12:56.110Z,7.60
2018-05-06T11:15:24.596Z,7.20
2018-05-06T11:17:53.173Z,7.07
2018-05-06T11:20:21.396Z,7.43
2018-05-06T11:22:49.596Z,7.87
2018-05-06T11:25:17.698Z,7.90
2018-05-06T11:27:45.885Z,7.40
2018-05-06T11:30:14.172Z,6.60
2018-05-06T11:32:42.480Z,7.40
2018-05-06T11:35:11.108Z,7.10
2018-05-06T11:37:39.576Z,6.80
2018-05-06T11:40:07.864Z,7.00
2018-05-06T11:42:36.200Z,7.17
2018-05-06T11:45:04.470Z,6.27
2018-05-06T12:00:32.106Z,6.63
2018-05-06T12:03:00.390Z,6.60
2018-05-06T12:05:28.670Z,6.23
2018-05-06T12:07:56.882Z,6.20
2018-05-06T12:10:25.238Z,7.20
2018-05-06T12:12:53.796Z,5.70
2018-05-06T12:15:21.767Z,5.70
2018-05-06T12:17:49.983Z,6.40
2018-05-06T12:20:18.360Z,5.70
2018-05-06T12:22:46.645Z,6.97
2018-05-06T12:25:15.266Z,6.10
2018-05-06T12:27:43.752Z,6.83
2018-05-06T12:30:12.043Z,6.00
2018-05-06T12:32:40.340Z,5.30
2018-05-06T12:35:08.449Z,5.03
2018-05-06T12:37:36.753Z,5.73
2018-05-06T12:40:04.927Z,5.50
2018-05-06T12:42:33.127Z,5.37
2018-05-06T12:45:01.660Z,5.63
2018-05-06T12:47:29.969Z,6.10
2018-05-06T12:49:58.227Z,5.60
2018-05-06T12:52:26.421Z,5.87
2018-05-06T12:54:54.653Z,5.67
2018-05-06T12:57:22.837Z,5.57
2018-05-06T12:59:51.097Z,5.40
2018-05-06T13:02:19.307Z,5.27
2018-05-06T13:04:47.700Z,5.73
2018-05-06T13:07:17.406Z,5.17
2018-05-06T13:09:45.826Z,5.90
2018-05-06T13:12:13.912Z,5.90
2018-05-06T13:14:42.219Z,5.67
2018-05-06T13:17:10.621Z,5.57
2018-05-06T13:19:38.705Z,4.87
2018-05-06T13:22:08.099Z,4.80
2018-05-06T13:24:36.322Z,5.83
2018-05-06T13:27:04.511Z,4.97
2018-05-06T13:29:32.612Z,5.50
2018-05-06T13:32:00.695Z,5.37
2018-05-06T13:34:28.882Z,5.53
2018-05-06T13:36:57.103Z,5.90
2018-05-06T13:39:25.306Z,5.50
2018-05-06T13:41:53.459Z,5.97
2018-05-06T13:44:21.777Z,6.20
2018-05-06T13:46:50.473Z,5.60
2018-05-06T13:49:19.133Z,5.97
2018-05-06T13:51:47.595Z,5.93
2018-05-06T13:54:15.991Z,5.07
2018-05-06T13:56:44.165Z,5.97
2018-05-06T13:59:12.473Z,6.03
2018-05-06T14:01:40.767Z,6.23
2018-05-06T14:04:08.967Z,5.60
2018-05-06T14:06:37.370Z,5.80
2018-05-06T14:09:05.585Z,5.07
2018-05-06T14:11:33.758Z,5.20
2018-05-06T14:14:02.457Z,5.70
2018-05-06T14:16:30.860Z,5.50
2018-05-06T14:18:59.052Z,5.20
2018-05-06T14:21:27.545Z,4.57
2018-05-06T14:23:55.732Z,4.60
2018-05-06T14:26:23.822Z,5.43
2018-05-06T14:28:52.030Z,5.10
2018-05-06T14:31:20.229Z,4.90
2018-05-06T14:33:48.627Z,4.00
2018-05-06T14:36:16.715Z,4.50
2018-05-06T14:38:44.936Z,3.90
2018-05-06T14:41:13.424Z,4.27
2018-05-06T14:43:41.705Z,5.17
2018-05-06T14:46:09.994Z,4.30
2018-05-06T14:48:38.105Z,4.50
2018-05-06T14:51:06.134Z,4.70
2018-05-06T14:53:34.273Z,4.33
2018-05-06T14:56:02.486Z,5.20
2018-05-06T14:58:31.183Z,4.40
2018-05-06T15:00:59.370Z,4.43
2018-05-06T15:03:27.670Z,3.77
2018-05-06T15:05:55.970Z,4.40
2018-05-06T15:08:24.467Z,4.17
2018-05-06T15:10:52.774Z,4.77
2018-05-06T15:13:21.169Z,4.17
2018-05-06T15:15:49.549Z,4.90
2018-05-06T15:18:17.887Z,4.93
2018-05-06T15:20:46.280Z,4.83
2018-05-06T15:23:14.553Z,6.00
2018-05-06T15:25:43.066Z,4.03
2018-05-06T15:28:11.252Z,3.90
2018-05-06T15:30:39.382Z,4.00
2018-05-06T15:33:07.643Z,4.63
2018-05-06T15:35:36.158Z,3.73
2018-05-06T15:38:04.650Z,3.47
2018-05-06T15:40:32.953Z,4.47
2018-05-06T15:43:01.270Z,4.00
2018-05-06T15:45:29.540Z,3.90
2018-05-06T15:47:57.836Z,4.13
2018-05-06T15:50:26.323Z,3.70
2018-05-06T15:52:54.835Z,3.73
2018-05-06T15:55:24.365Z,3.80
2018-05-06T15:57:52.744Z,12.33
2018-05-06T16:00:21.055Z,4.87
2018-05-06T16:02:49.242Z,3.80
2018-05-06T16:05:17.757Z,4.33
2018-05-06T16:07:45.768Z,4.43
2018-05-06T16:10:14.131Z,4.20
2018-05-06T16:12:42.239Z,4.20
2018-05-06T16:15:10.652Z,4.60
2018-05-06T16:17:39.055Z,4.17
2018-05-06T16:20:07.433Z,5.00
2018-05-06T16:22:35.781Z,4.47
2018-05-06T16:25:04.117Z,4.10
2018-05-06T16:27:32.303Z,4.37
2018-05-06T16:30:00.520Z,4.93
2018-05-06T16:32:28.703Z,4.27
2018-05-06T16:34:56.909Z,5.30
2018-05-06T16:37:25.518Z,3.90
2018-05-06T16:39:53.798Z,5.27
2018-05-06T16:42:21.996Z,4.70
2018-05-06T16:44:50.293Z,4.57
2018-05-06T16:47:18.307Z,4.20
2018-05-06T16:49:46.584Z,3.87
2018-05-06T16:52:14.973Z,3.90
2018-05-06T16:54:43.167Z,4.90
2018-05-06T16:57:11.288Z,4.67
2018-05-06T16:59:39.979Z,5.10
2018-05-06T17:02:08.290Z,4.50
2018-05-06T17:04:36.574Z,5.17
2018-05-06T17:07:05.870Z,6.68
2018-05-06T17:09:34.274Z,6.43
2018-05-06T17:12:02.567Z,6.60
2018-05-06T17:14:30.963Z,7.35
2018-05-06T17:16:59.059Z,6.78
2018-05-06T17:19:27.353Z,7.15
2018-05-06T17:21:55.721Z,6.82
2018-05-06T17:24:23.907Z,8.60
2018-05-06T17:26:51.937Z,5.00
2018-05-06T17:29:20.135Z,5.53
2018-05-06T17:31:48.235Z,5.65
2018-05-06T17:34:16.434Z,5.82
2018-05-06T17:36:44.716Z,5.70
2018-05-06T17:39:13.018Z,6.45
2018-05-06T17:41:41.202Z,6.53
2018-05-06T17:44:09.400Z,5.15
2018-05-06T17:46:37.501Z,4.97
2018-05-06T17:49:05.690Z,5.32
2018-05-06T17:51:33.991Z,6.97
2018-05-06T17:54:02.170Z,6.43
2018-05-06T17:56:30.269Z,5.45
2018-05-06T17:58:58.469Z,5.43
2018-05-06T18:01:26.554Z,4.25
2018-05-06T18:03:54.754Z,4.53
2018-05-06T18:06:22.893Z,4.95
2018-05-06T18:08:51.014Z,5.55
2018-05-06T18:11:19.234Z,4.35
2018-05-06T18:13:47.637Z,4.70
2018-05-06T18:16:15.829Z,5.05
2018-05-06T18:18:44.231Z,4.80
2018-05-06T18:21:12.431Z,4.95
2018-05-06T18:23:40.730Z,5.37
2018-05-06T18:26:08.915Z,4.57
2018-05-06T18:28:37.211Z,4.65
2018-05-06T18:31:05.410Z,5.68
2018-05-06T18:33:33.690Z,5.28
2018-05-06T18:36:01.890Z,5.20
2018-05-06T18:38:30.090Z,4.20
2018-05-06T18:40:58.290Z,4.78
2018-05-06T18:43:26.371Z,4.20
2018-05-06T18:45:54.569Z,4.60
2018-05-06T18:48:22.771Z,4.18
2018-05-06T18:50:50.890Z,4.12
2018-05-06T18:53:18.869Z,5.53
2018-05-06T18:55:47.150Z,5.37
2018-05-06T18:58:15.232Z,5.40
2018-05-06T19:00:43.442Z,4.82
2018-05-06T19:03:11.522Z,3.83
2018-05-06T19:05:39.721Z,4.10
2018-05-06T19:08:07.919Z,4.37
2018-05-06T19:10:36.109Z,3.85
2018-05-06T19:13:04.202Z,3.70
2018-05-06T19:15:32.402Z,4.62
2018-05-06T19:18:00.682Z,4.28
2018-05-06T19:20:29.082Z,5.12
2018-05-06T19:22:57.182Z,3.97
2018-05-06T19:25:25.482Z,4.45
2018-05-06T19:27:53.565Z,5.30
2018-05-06T19:30:21.757Z,4.53
2018-05-06T19:32:49.872Z,5.72
2018-05-06T19:35:17.945Z,4.68
2018-05-06T19:37:46.002Z,5.22
2018-05-06T19:40:14.338Z,4.60
2018-05-06T19:42:42.438Z,4.40
2018-05-06T19:45:10.627Z,4.10
2018-05-06T19:47:38.829Z,4.72
2018-05-06T19:50:07.108Z,4.70
2018-05-06T19:52:35.210Z,4.80
2018-05-06T19:55:03.386Z,5.25
2018-05-06T19:57:31.486Z,5.50
2018-05-06T19:59:59.686Z,5.50
2018-05-06T20:02:27.891Z,4.85
2018-05-06T20:04:56.082Z,5.55
2018-05-06T20:07:24.174Z,6.93
2018-05-06T20:09:52.371Z,5.80
2018-05-06T20:12:20.552Z,5.05
2018-05-06T20:14:48.649Z,4.90
2018-05-06T20:17:16.846Z,4.82
2018-05-06T20:19:44.891Z,5.43
2018-05-06T20:22:13.127Z,5.72
2018-05-06T20:24:41.323Z,4.80
2018-05-06T20:27:09.523Z,4.12
2018-05-06T20:29:37.704Z,5.12
2018-05-06T20:32:05.898Z,4.90
2018-05-06T20:34:34.099Z,5.32
2018-05-06T20:37:02.296Z,4.43
2018-05-06T20:39:30.405Z,4.90
2018-05-06T20:41:58.677Z,5.25
2018-05-06T20:44:26.885Z,4.60
2018-05-06T20:46:55.179Z,5.57
2018-05-06T20:49:23.378Z,5.65
2018-05-06T20:51:51.576Z,5.47
2018-05-06T20:54:19.660Z,4.72
2018-05-06T20:56:47.956Z,3.85
2018-05-06T20:59:16.256Z,4.18
2018-05-06T21:01:44.548Z,4.87
2018-05-06T21:04:12.564Z,4.20
2018-05-06T21:06:40.719Z,3.90
2018-05-06T21:09:08.819Z,4.60
2018-05-06T21:11:37.019Z,4.45
2018-05-06T21:14:05.820Z,4.87
2018-05-06T21:16:33.940Z,4.45
2018-05-06T21:19:01.963Z,3.70
2018-05-06T21:21:30.205Z,4.45
2018-05-06T21:23:58.293Z,4.80
2018-05-06T21:26:26.391Z,5.75
2018-05-06T21:28:54.790Z,4.35
2018-05-06T21:31:23.092Z,4.70
2018-05-06T21:33:51.286Z,4.85
2018-05-06T21:36:19.498Z,4.55
2018-05-06T21:38:47.778Z,4.05
2018-05-06T21:41:15.962Z,4.15
2018-05-06T21:43:44.154Z,5.00
2018-05-06T21:46:12.258Z,4.18
2018-05-06T21:48:40.339Z,4.28
2018-05-06T21:51:08.421Z,4.35
2018-05-06T21:53:36.724Z,4.65
2018-05-06T21:56:04.822Z,4.55
2018-05-06T21:58:33.119Z,4.80
2018-05-06T22:01:01.322Z,4.95
2018-05-06T22:03:29.713Z,5.00
2018-05-06T22:05:57.909Z,5.10
2018-05-06T22:08:26.099Z,4.70
2018-05-06T22:10:54.302Z,4.65
2018-05-06T22:13:22.390Z,4.47
2018-05-06T22:15:50.577Z,4.20
2018-05-06T22:18:18.663Z,5.03
2018-05-06T22:20:46.868Z,4.65
2018-05-06T22:23:15.036Z,5.45
2018-05-06T22:25:44.582Z,4.72
2018-05-06T22:28:12.543Z,4.70
2018-05-06T22:30:40.664Z,4.80
2018-05-06T22:33:08.863Z,4.70
2018-05-06T22:35:37.056Z,4.70
2018-05-06T22:38:05.454Z,4.57
2018-05-06T22:40:33.654Z,4.75
2018-05-06T22:43:01.953Z,5.57
2018-05-06T22:45:30.345Z,5.05
2018-05-06T22:47:58.540Z,4.53
2018-05-06T22:50:26.739Z,3.95
2018-05-06T22:52:54.922Z,4.65
2018-05-06T22:55:23.021Z,4.20
2018-05-06T22:57:51.221Z,4.35
2018-05-06T23:00:19.533Z,4.35
2018-05-06T23:02:47.715Z,4.05
2018-05-06T23:05:15.996Z,5.93
2018-05-06T23:07:44.199Z,5.65
2018-05-06T23:10:12.214Z,4.53
2018-05-06T23:12:40.476Z,4.43
2018-05-06T23:15:08.573Z,4.87
2018-05-06T23:17:36.878Z,4.18
2018-05-06T23:20:05.164Z,4.60
2018-05-06T23:22:33.361Z,5.03
2018-05-06T23:25:01.655Z,5.28
2018-05-06T23:27:29.853Z,4.28
2018-05-06T23:29:57.978Z,4.90
2018-05-06T23:32:26.140Z,4.70
2018-05-06T23:34:54.337Z,5.62
2018-05-06T23:37:22.535Z,4.75
2018-05-06T23:39:50.719Z,5.30
2018-05-06T23:42:18.913Z,4.90
2018-05-06T23:44:47.000Z,3.83
2018-05-06T23:47:15.196Z,4.62
2018-05-06T23:49:43.511Z,5.03
2018-05-06T23:52:11.730Z,5.15
2018-05-06T23:54:39.839Z,4.75
2018-05-06T23:57:08.175Z,5.00
2018-05-06T23:59:36.380Z,4.60
